sensor_id;sensor_type;location;lat;lon;timestamp;pressure;altitude;pressure_sealevel;temperature
55038;BMP280;40937;53.594;10.034;2023-03-19T00:02:13;101329.75;;;11.68
55038;BMP280;40937;53.594;10.034;2023-03-19T00:04:40;101335.06;;;11.68
55038;BMP280;40937;53.594;10.034;2023-03-19T00:07:07;101330.22;;;11.65
55038;BMP280;40937;53.594;10.034;2023-03-19T00:09:34;101338.38;;;11.63
55038;BMP280;40937;53.594;10.034;2023-03-19T00:12:02;101334.31;;;11.61
55038;BMP280;40937;53.594;10.034;2023-03-19T00:14:30;101333.56;;;11.60
55038;BMP280;40937;53.594;10.034;2023-03-19T00:16:58;101339.84;;;11.59
55038;BMP280;40937;53.594;10.034;2023-03-19T00:19:26;101335.63;;;11.58
55038;BMP280;40937;53.594;10.034;2023-03-19T00:21:53;101338.13;;;11.53
55038;BMP280;40937;53.594;10.034;2023-03-19T00:24:21;101341.81;;;11.52
55038;BMP280;40937;53.594;10.034;2023-03-19T00:26:49;101340.16;;;11.51
55038;BMP280;40937;53.594;10.034;2023-03-19T00:29:17;101339.16;;;11.52
55038;BMP280;40937;53.594;10.034;2023-03-19T00:31:46;101345.47;;;11.51
55038;BMP280;40937;53.594;10.034;2023-03-19T00:34:13;101343.84;;;11.50
55038;BMP280;40937;53.594;10.034;2023-03-19T00:36:43;101343.25;;;11.48
55038;BMP280;40937;53.594;10.034;2023-03-19T00:39:11;101345.56;;;11.44
55038;BMP280;40937;53.594;10.034;2023-03-19T00:41:38;101348.41;;;11.43
55038;BMP280;40937;53.594;10.034;2023-03-19T00:44:06;101356.13;;;11.44
55038;BMP280;40937;53.594;10.034;2023-03-19T00:46:34;101346.78;;;11.42
55038;BMP280;40937;53.594;10.034;2023-03-19T00:49:04;101345.75;;;11.43
55038;BMP280;40937;53.594;10.034;2023-03-19T00:51:35;101353.09;;;11.41
55038;BMP280;40937;53.594;10.034;2023-03-19T00:54:02;101353.53;;;11.38
55038;BMP280;40937;53.594;10.034;2023-03-19T00:56:30;101350.09;;;11.37
55038;BMP280;40937;53.594;10.034;2023-03-19T00:58:58;101356.66;;;11.35
55038;BMP280;40937;53.594;10.034;2023-03-19T01:01:25;101357.06;;;11.31
55038;BMP280;40937;53.594;10.034;2023-03-19T01:03:53;101361.19;;;11.27
55038;BMP280;40937;53.594;10.034;2023-03-19T01:06:23;101366.47;;;11.27
55038;BMP280;40937;53.594;10.034;2023-03-19T01:08:51;101366.09;;;11.24
55038;BMP280;40937;53.594;10.034;2023-03-19T01:11:18;101359.84;;;11.18
55038;BMP280;40937;53.594;10.034;2023-03-19T01:13:46;101361.69;;;11.18
55038;BMP280;40937;53.594;10.034;2023-03-19T01:16:15;101357.22;;;11.18
55038;BMP280;40937;53.594;10.034;2023-03-19T01:18:42;101358.84;;;11.19
55038;BMP280;40937;53.594;10.034;2023-03-19T01:21:10;101354.03;;;11.09
55038;BMP280;40937;53.594;10.034;2023-03-19T01:23:46;101359.19;;;11.04
55038;BMP280;40937;53.594;10.034;2023-03-19T01:26:14;101357.66;;;10.97
55038;BMP280;40937;53.594;10.034;2023-03-19T01:28:42;101358.50;;;10.90
55038;BMP280;40937;53.594;10.034;2023-03-19T01:31:11;101350.66;;;10.84
55038;BMP280;40937;53.594;10.034;2023-03-19T01:33:53;101354.72;;;10.86
55038;BMP280;40937;53.594;10.034;2023-03-19T01:36:32;101350.44;;;10.85
55038;BMP280;40937;53.594;10.034;2023-03-19T01:39:03;101355.50;;;10.87
55038;BMP280;40937;53.594;10.034;2023-03-19T01:41:31;101351.47;;;10.84
55038;BMP280;40937;53.594;10.034;2023-03-19T01:44:23;101351.09;;;10.81
55038;BMP280;40937;53.594;10.034;2023-03-19T01:47:17;101351.91;;;10.81
55038;BMP280;40937;53.594;10.034;2023-03-19T01:50:26;101346.63;;;10.81
55038;BMP280;40937;53.594;10.034;2023-03-19T01:53:14;101349.03;;;10.83
55038;BMP280;40937;53.594;10.034;2023-03-19T01:56:14;101345.38;;;10.84
55038;BMP280;40937;53.594;10.034;2023-03-19T01:59:11;101340.47;;;10.87
55038;BMP280;40937;53.594;10.034;2023-03-19T02:01:58;101345.75;;;10.87
55038;BMP280;40937;53.594;10.034;2023-03-19T02:04:28;101340.09;;;10.84
55038;BMP280;40937;53.594;10.034;2023-03-19T02:06:58;101334.47;;;10.80
55038;BMP280;40937;53.594;10.034;2023-03-19T02:09:28;101339.34;;;10.77
55038;BMP280;40937;53.594;10.034;2023-03-19T02:11:58;101333.69;;;10.73
55038;BMP280;40937;53.594;10.034;2023-03-19T02:14:26;101332.09;;;10.72
55038;BMP280;40937;53.594;10.034;2023-03-19T02:16:54;101333.56;;;10.68
55038;BMP280;40937;53.594;10.034;2023-03-19T02:19:27;101335.81;;;10.64
55038;BMP280;40937;53.594;10.034;2023-03-19T02:21:58;101341.50;;;10.61
55038;BMP280;40937;53.594;10.034;2023-03-19T02:24:31;101343.22;;;10.56
55038;BMP280;40937;53.594;10.034;2023-03-19T02:27:06;101335.13;;;10.50
55038;BMP280;40937;53.594;10.034;2023-03-19T02:29:37;101345.50;;;10.45
55038;BMP280;40937;53.594;10.034;2023-03-19T02:32:04;101339.66;;;10.43
55038;BMP280;40937;53.594;10.034;2023-03-19T02:34:36;101338.47;;;10.39
55038;BMP280;40937;53.594;10.034;2023-03-19T02:37:09;101340.66;;;10.42
55038;BMP280;40937;53.594;10.034;2023-03-19T02:39:45;101334.38;;;10.43
55038;BMP280;40937;53.594;10.034;2023-03-19T02:42:16;101340.66;;;10.42
55038;BMP280;40937;53.594;10.034;2023-03-19T02:44:45;101347.63;;;10.37
55038;BMP280;40937;53.594;10.034;2023-03-19T02:47:12;101341.38;;;10.31
55038;BMP280;40937;53.594;10.034;2023-03-19T02:49:41;101347.88;;;10.28
55038;BMP280;40937;53.594;10.034;2023-03-19T02:52:08;101345.06;;;10.23
55038;BMP280;40937;53.594;10.034;2023-03-19T02:54:35;101350.38;;;10.17
55038;BMP280;40937;53.594;10.034;2023-03-19T02:57:03;101345.56;;;10.13
55038;BMP280;40937;53.594;10.034;2023-03-19T02:59:32;101341.09;;;10.07
55038;BMP280;40937;53.594;10.034;2023-03-19T03:01:59;101344.41;;;10.03
55038;BMP280;40937;53.594;10.034;2023-03-19T03:04:27;101343.38;;;9.97
55038;BMP280;40937;53.594;10.034;2023-03-19T03:06:54;101338.75;;;9.92
55038;BMP280;40937;53.594;10.034;2023-03-19T03:09:21;101348.50;;;9.92
55038;BMP280;40937;53.594;10.034;2023-03-19T03:11:48;101344.88;;;9.93
55038;BMP280;40937;53.594;10.034;2023-03-19T03:14:15;101350.53;;;9.90
55038;BMP280;40937;53.594;10.034;2023-03-19T03:16:45;101340.84;;;9.84
55038;BMP280;40937;53.594;10.034;2023-03-19T03:19:12;101347.94;;;9.83
55038;BMP280;40937;53.594;10.034;2023-03-19T03:21:40;101349.34;;;9.86
55038;BMP280;40937;53.594;10.034;2023-03-19T03:24:07;101346.13;;;9.84
55038;BMP280;40937;53.594;10.034;2023-03-19T03:26:35;101344.50;;;9.83
55038;BMP280;40937;53.594;10.034;2023-03-19T03:29:04;101348.75;;;9.84
55038;BMP280;40937;53.594;10.034;2023-03-19T03:31:31;101354.22;;;9.82
55038;BMP280;40937;53.594;10.034;2023-03-19T03:34:01;101352.19;;;9.84
55038;BMP280;40937;53.594;10.034;2023-03-19T03:36:28;101356.88;;;9.82
55038;BMP280;40937;53.594;10.034;2023-03-19T03:38:56;101357.47;;;9.84
55038;BMP280;40937;53.594;10.034;2023-03-19T03:41:23;101354.19;;;9.89
55038;BMP280;40937;53.594;10.034;2023-03-19T03:43:51;101358.47;;;9.83
55038;BMP280;40937;53.594;10.034;2023-03-19T03:46:18;101357.72;;;9.76
55038;BMP280;40937;53.594;10.034;2023-03-19T03:48:48;101349.78;;;9.69
55038;BMP280;40937;53.594;10.034;2023-03-19T03:51:18;101350.66;;;9.63
55038;BMP280;40937;53.594;10.034;2023-03-19T03:53:46;101342.75;;;9.63
55038;BMP280;40937;53.594;10.034;2023-03-19T03:56:14;101344.16;;;9.66
55038;BMP280;40937;53.594;10.034;2023-03-19T03:58:41;101345.97;;;9.72
55038;BMP280;40937;53.594;10.034;2023-03-19T04:01:09;101346.75;;;9.72
55038;BMP280;40937;53.594;10.034;2023-03-19T04:03:39;101345.75;;;9.73
55038;BMP280;40937;53.594;10.034;2023-03-19T04:06:08;101346.97;;;9.78
55038;BMP280;40937;53.594;10.034;2023-03-19T04:08:37;101343.28;;;9.79
55038;BMP280;40937;53.594;10.034;2023-03-19T04:11:06;101348.13;;;9.82
55038;BMP280;40937;53.594;10.034;2023-03-19T04:13:33;101342.06;;;9.81
55038;BMP280;40937;53.594;10.034;2023-03-19T04:16:03;101342.47;;;9.78
55038;BMP280;40937;53.594;10.034;2023-03-19T04:18:30;101357.50;;;9.78
55038;BMP280;40937;53.594;10.034;2023-03-19T04:20:57;101349.81;;;9.76
55038;BMP280;40937;53.594;10.034;2023-03-19T04:23:25;101352.44;;;9.76
55038;BMP280;40937;53.594;10.034;2023-03-19T04:25:57;101355.28;;;9.74
55038;BMP280;40937;53.594;10.034;2023-03-19T04:28:24;101359.31;;;9.77
55038;BMP280;40937;53.594;10.034;2023-03-19T04:30:52;101356.28;;;9.73
55038;BMP280;40937;53.594;10.034;2023-03-19T04:33:24;101353.25;;;9.77
55038;BMP280;40937;53.594;10.034;2023-03-19T04:35:51;101351.03;;;9.73
55038;BMP280;40937;53.594;10.034;2023-03-19T04:38:19;101350.22;;;9.73
55038;BMP280;40937;53.594;10.034;2023-03-19T04:40:46;101348.97;;;9.76
55038;BMP280;40937;53.594;10.034;2023-03-19T04:43:15;101348.97;;;9.76
55038;BMP280;40937;53.594;10.034;2023-03-19T04:45:43;101355.56;;;9.60
55038;BMP280;40937;53.594;10.034;2023-03-19T04:48:11;101360.19;;;9.51
55038;BMP280;40937;53.594;10.034;2023-03-19T04:50:40;101355.16;;;9.43
55038;BMP280;40937;53.594;10.034;2023-03-19T04:53:07;101350.75;;;9.37
55038;BMP280;40937;53.594;10.034;2023-03-19T04:55:35;101360.06;;;9.32
55038;BMP280;40937;53.594;10.034;2023-03-19T04:58:12;101365.34;;;9.32
55038;BMP280;40937;53.594;10.034;2023-03-19T05:00:45;101361.28;;;9.37
55038;BMP280;40937;53.594;10.034;2023-03-19T05:03:17;101357.81;;;9.43
55038;BMP280;40937;53.594;10.034;2023-03-19T05:05:46;101358.00;;;9.48
55038;BMP280;40937;53.594;10.034;2023-03-19T05:08:14;101360.81;;;9.53
55038;BMP280;40937;53.594;10.034;2023-03-19T05:10:43;101359.78;;;9.61
55038;BMP280;40937;53.594;10.034;2023-03-19T05:13:11;101362.41;;;9.67
55038;BMP280;40937;53.594;10.034;2023-03-19T05:15:46;101369.31;;;9.68
55038;BMP280;40937;53.594;10.034;2023-03-19T05:18:14;101366.44;;;9.63
55038;BMP280;40937;53.594;10.034;2023-03-19T05:20:44;101364.44;;;9.65
55038;BMP280;40937;53.594;10.034;2023-03-19T05:23:19;101371.31;;;9.66
55038;BMP280;40937;53.594;10.034;2023-03-19T05:26:03;101363.81;;;9.63
55038;BMP280;40937;53.594;10.034;2023-03-19T05:28:54;101368.50;;;9.61
55038;BMP280;40937;53.594;10.034;2023-03-19T05:31:34;101362.41;;;9.67
55038;BMP280;40937;53.594;10.034;2023-03-19T05:34:01;101358.31;;;9.71
55038;BMP280;40937;53.594;10.034;2023-03-19T05:36:31;101363.19;;;9.74
55038;BMP280;40937;53.594;10.034;2023-03-19T05:39:05;101356.44;;;9.79
55038;BMP280;40937;53.594;10.034;2023-03-19T05:41:36;101350.97;;;9.80
55038;BMP280;40937;53.594;10.034;2023-03-19T05:44:05;101360.31;;;9.83
55038;BMP280;40937;53.594;10.034;2023-03-19T05:47:01;101359.09;;;9.85
55038;BMP280;40937;53.594;10.034;2023-03-19T05:49:32;101354.63;;;9.86
55038;BMP280;40937;53.594;10.034;2023-03-19T05:51:59;101365.97;;;9.86
55038;BMP280;40937;53.594;10.034;2023-03-19T05:54:26;101366.78;;;9.87
55038;BMP280;40937;53.594;10.034;2023-03-19T05:57:11;101359.91;;;9.86
55038;BMP280;40937;53.594;10.034;2023-03-19T05:59:59;101356.25;;;9.87
55038;BMP280;40937;53.594;10.034;2023-03-19T06:02:34;101357.81;;;9.88
55038;BMP280;40937;53.594;10.034;2023-03-19T06:05:19;101363.72;;;9.90
55038;BMP280;40937;53.594;10.034;2023-03-19T06:07:47;101367.97;;;9.91
55038;BMP280;40937;53.594;10.034;2023-03-19T06:10:23;101369.59;;;9.92
55038;BMP280;40937;53.594;10.034;2023-03-19T06:12:55;101379.94;;;9.93
55038;BMP280;40937;53.594;10.034;2023-03-19T06:15:36;101359.44;;;9.89
55038;BMP280;40937;53.594;10.034;2023-03-19T06:18:15;101378.50;;;9.91
55038;BMP280;40937;53.594;10.034;2023-03-19T06:20:45;101372.81;;;9.94
55038;BMP280;40937;53.594;10.034;2023-03-19T06:23:14;101384.00;;;9.96
55038;BMP280;40937;53.594;10.034;2023-03-19T06:25:42;101383.53;;;9.99
55038;BMP280;40937;53.594;10.034;2023-03-19T06:28:09;101385.56;;;9.97
55038;BMP280;40937;53.594;10.034;2023-03-19T06:30:41;101382.50;;;10.00
55038;BMP280;40937;53.594;10.034;2023-03-19T06:33:29;101383.09;;;10.02
55038;BMP280;40937;53.594;10.034;2023-03-19T06:35:58;101383.72;;;10.04
55038;BMP280;40937;53.594;10.034;2023-03-19T06:38:27;101384.28;;;10.06
55038;BMP280;40937;53.594;10.034;2023-03-19T06:40:54;101384.88;;;10.08
55038;BMP280;40937;53.594;10.034;2023-03-19T06:43:21;101395.03;;;10.11
55038;BMP280;40937;53.594;10.034;2023-03-19T06:45:48;101391.38;;;10.12
55038;BMP280;40937;53.594;10.034;2023-03-19T06:48:16;101394.59;;;10.14
55038;BMP280;40937;53.594;10.034;2023-03-19T06:50:45;101392.56;;;10.17
55038;BMP280;40937;53.594;10.034;2023-03-19T06:53:13;101398.22;;;10.20
55038;BMP280;40937;53.594;10.034;2023-03-19T06:55:40;101402.25;;;10.23
55038;BMP280;40937;53.594;10.034;2023-03-19T06:58:07;101405.06;;;10.28
55038;BMP280;40937;53.594;10.034;2023-03-19T07:00:34;101404.44;;;10.32
55038;BMP280;40937;53.594;10.034;2023-03-19T07:03:01;101404.00;;;10.36
55038;BMP280;40937;53.594;10.034;2023-03-19T07:05:29;101402.81;;;10.38
55038;BMP280;40937;53.594;10.034;2023-03-19T07:07:57;101406.59;;;10.42
55038;BMP280;40937;53.594;10.034;2023-03-19T07:10:24;101406.81;;;10.47
55038;BMP280;40937;53.594;10.034;2023-03-19T07:12:52;101410.59;;;10.51
55038;BMP280;40937;53.594;10.034;2023-03-19T07:15:19;101420.72;;;10.55
55038;BMP280;40937;53.594;10.034;2023-03-19T07:17:47;101417.44;;;10.59
55038;BMP280;40937;53.594;10.034;2023-03-19T07:20:15;101421.28;;;10.63
55038;BMP280;40937;53.594;10.034;2023-03-19T07:22:42;101414.72;;;10.66
55038;BMP280;40937;53.594;10.034;2023-03-19T07:25:10;101413.31;;;10.70
55038;BMP280;40937;53.594;10.034;2023-03-19T07:27:38;101418.13;;;10.73
55038;BMP280;40937;53.594;10.034;2023-03-19T07:30:06;101424.63;;;10.77
55038;BMP280;40937;53.594;10.034;2023-03-19T07:32:33;101419.72;;;10.81
55038;BMP280;40937;53.594;10.034;2023-03-19T07:35:01;101417.34;;;10.98
55038;BMP280;40937;53.594;10.034;2023-03-19T07:37:28;101427.03;;;11.04
55038;BMP280;40937;53.594;10.034;2023-03-19T07:39:55;101421.56;;;11.05
55038;BMP280;40937;53.594;10.034;2023-03-19T07:42:23;101427.78;;;11.11
55038;BMP280;40937;53.594;10.034;2023-03-19T07:44:51;101436.44;;;11.18
55038;BMP280;40937;53.594;10.034;2023-03-19T07:47:18;101423.38;;;11.23
55038;BMP280;40937;53.594;10.034;2023-03-19T07:49:45;101428.44;;;11.25
55038;BMP280;40937;53.594;10.034;2023-03-19T07:52:12;101432.28;;;11.29
55038;BMP280;40937;53.594;10.034;2023-03-19T07:54:39;101436.91;;;11.34
55038;BMP280;40937;53.594;10.034;2023-03-19T07:57:07;101428.56;;;11.37
55038;BMP280;40937;53.594;10.034;2023-03-19T07:59:35;101429.94;;;11.39
55038;BMP280;40937;53.594;10.034;2023-03-19T08:02:03;101426.66;;;11.44
55038;BMP280;40937;53.594;10.034;2023-03-19T08:04:30;101431.47;;;11.47
55038;BMP280;40937;53.594;10.034;2023-03-19T08:06:57;101431.63;;;11.52
55038;BMP280;40937;53.594;10.034;2023-03-19T08:09:25;101431.97;;;11.56
55038;BMP280;40937;53.594;10.034;2023-03-19T08:11:52;101435.00;;;11.59
55038;BMP280;40937;53.594;10.034;2023-03-19T08:14:20;101434.31;;;11.64
55038;BMP280;40937;53.594;10.034;2023-03-19T08:16:49;101433.09;;;11.66
55038;BMP280;40937;53.594;10.034;2023-03-19T08:19:16;101441.13;;;11.71
55038;BMP280;40937;53.594;10.034;2023-03-19T08:21:43;101441.81;;;12.16
55038;BMP280;40937;53.594;10.034;2023-03-19T08:24:11;101446.19;;;12.22
55038;BMP280;40937;53.594;10.034;2023-03-19T08:26:38;101432.59;;;12.18
55038;BMP280;40937;53.594;10.034;2023-03-19T08:34:51;101436.53;;;12.16
55038;BMP280;40937;53.594;10.034;2023-03-19T08:37:18;101447.09;;;12.16
55038;BMP280;40937;53.594;10.034;2023-03-19T08:39:45;101438.13;;;12.17
55038;BMP280;40937;53.594;10.034;2023-03-19T08:42:13;101449.31;;;12.19
55038;BMP280;40937;53.594;10.034;2023-03-19T08:44:40;101448.00;;;12.21
55038;BMP280;40937;53.594;10.034;2023-03-19T08:47:07;101451.03;;;12.25
55038;BMP280;40937;53.594;10.034;2023-03-19T08:49:34;101449.31;;;12.30
55038;BMP280;40937;53.594;10.034;2023-03-19T08:52:03;101446.59;;;12.37
55038;BMP280;40937;53.594;10.034;2023-03-19T08:54:31;101450.53;;;12.46
55038;BMP280;40937;53.594;10.034;2023-03-19T08:56:59;101451.09;;;12.48
55038;BMP280;40937;53.594;10.034;2023-03-19T08:59:26;101453.28;;;12.52
55038;BMP280;40937;53.594;10.034;2023-03-19T09:01:54;101459.16;;;12.54
55038;BMP280;40937;53.594;10.034;2023-03-19T09:04:21;101459.75;;;12.56
55038;BMP280;40937;53.594;10.034;2023-03-19T09:06:48;101458.25;;;12.60
55038;BMP280;40937;53.594;10.034;2023-03-19T09:09:18;101466.06;;;12.66
55038;BMP280;40937;53.594;10.034;2023-03-19T09:11:46;101465.06;;;12.67
55038;BMP280;40937;53.594;10.034;2023-03-19T09:14:13;101456.91;;;12.69
55038;BMP280;40937;53.594;10.034;2023-03-19T09:16:42;101462.50;;;12.73
55038;BMP280;40937;53.594;10.034;2023-03-19T09:19:09;101468.19;;;12.76
55038;BMP280;40937;53.594;10.034;2023-03-19T09:21:37;101461.38;;;12.80
55038;BMP280;40937;53.594;10.034;2023-03-19T09:24:04;101464.94;;;12.86
55038;BMP280;40937;53.594;10.034;2023-03-19T09:26:33;101464.84;;;12.93
55038;BMP280;40937;53.594;10.034;2023-03-19T09:29:00;101462.09;;;12.99
55038;BMP280;40937;53.594;10.034;2023-03-19T09:31:28;101461.97;;;13.06
55038;BMP280;40937;53.594;10.034;2023-03-19T09:33:55;101466.34;;;13.12
55038;BMP280;40937;53.594;10.034;2023-03-19T09:36:22;101463.78;;;13.17
55038;BMP280;40937;53.594;10.034;2023-03-19T09:38:52;101471.84;;;13.22
55038;BMP280;40937;53.594;10.034;2023-03-19T09:41:26;101477.50;;;13.26
55038;BMP280;40937;53.594;10.034;2023-03-19T09:43:59;101476.81;;;13.30
55038;BMP280;40937;53.594;10.034;2023-03-19T09:46:33;101471.63;;;13.36
55038;BMP280;40937;53.594;10.034;2023-03-19T09:49:08;101478.63;;;13.42
55038;BMP280;40937;53.594;10.034;2023-03-19T09:51:42;101474.03;;;13.49
55038;BMP280;40937;53.594;10.034;2023-03-19T09:54:24;101476.78;;;13.54
55038;BMP280;40937;53.594;10.034;2023-03-19T09:56:52;101476.84;;;13.59
55038;BMP280;40937;53.594;10.034;2023-03-19T09:59:22;101474.91;;;13.66
55038;BMP280;40937;53.594;10.034;2023-03-19T10:01:58;101474.19;;;13.71
55038;BMP280;40937;53.594;10.034;2023-03-19T10:04:42;101479.81;;;13.75
55038;BMP280;40937;53.594;10.034;2023-03-19T10:07:24;101480.97;;;13.79
55038;BMP280;40937;53.594;10.034;2023-03-19T10:10:05;101486.59;;;13.82
55038;BMP280;40937;53.594;10.034;2023-03-19T10:12:46;101483.25;;;13.87
55038;BMP280;40937;53.594;10.034;2023-03-19T10:15:21;101480.66;;;13.92
55038;BMP280;40937;53.594;10.034;2023-03-19T10:17:56;101483.44;;;13.97
55038;BMP280;40937;53.594;10.034;2023-03-19T10:20:31;101482.47;;;14.03
55038;BMP280;40937;53.594;10.034;2023-03-19T10:23:12;101478.66;;;14.11
55038;BMP280;40937;53.594;10.034;2023-03-19T10:25:41;101489.13;;;14.18
55038;BMP280;40937;53.594;10.034;2023-03-19T10:28:13;101481.22;;;14.23
55038;BMP280;40937;53.594;10.034;2023-03-19T10:30:46;101477.03;;;14.27
55038;BMP280;40937;53.594;10.034;2023-03-19T10:33:21;101476.59;;;14.30
55038;BMP280;40937;53.594;10.034;2023-03-19T10:35:56;101475.03;;;14.34
55038;BMP280;40937;53.594;10.034;2023-03-19T10:38:25;101481.25;;;14.40
55038;BMP280;40937;53.594;10.034;2023-03-19T10:41:04;101480.78;;;14.43
55038;BMP280;40937;53.594;10.034;2023-03-19T10:43:38;101475.31;;;14.49
55038;BMP280;40937;53.594;10.034;2023-03-19T10:46:11;101479.09;;;14.54
55038;BMP280;40937;53.594;10.034;2023-03-19T10:48:42;101473.53;;;14.55
55038;BMP280;40937;53.594;10.034;2023-03-19T10:51:12;101473.84;;;14.59
55038;BMP280;40937;53.594;10.034;2023-03-19T10:53:41;101476.34;;;14.65
55038;BMP280;40937;53.594;10.034;2023-03-19T10:56:17;101475.94;;;14.74
55038;BMP280;40937;53.594;10.034;2023-03-19T10:58:56;101480.03;;;14.81
55038;BMP280;40937;53.594;10.034;2023-03-19T11:01:30;101474.31;;;14.89
55038;BMP280;40937;53.594;10.034;2023-03-19T11:03:58;101468.00;;;14.96
55038;BMP280;40937;53.594;10.034;2023-03-19T11:06:29;101467.03;;;15.02
55038;BMP280;40937;53.594;10.034;2023-03-19T11:08:58;101469.75;;;15.07
55038;BMP280;40937;53.594;10.034;2023-03-19T11:11:33;101469.28;;;15.10
55038;BMP280;40937;53.594;10.034;2023-03-19T11:14:08;101470.88;;;15.11
55038;BMP280;40937;53.594;10.034;2023-03-19T11:16:48;101481.25;;;15.12
55038;BMP280;40937;53.594;10.034;2023-03-19T11:19:19;101475.94;;;15.12
55038;BMP280;40937;53.594;10.034;2023-03-19T11:21:58;101481.03;;;15.14
55038;BMP280;40937;53.594;10.034;2023-03-19T11:24:26;101475.72;;;15.14
55038;BMP280;40937;53.594;10.034;2023-03-19T11:26:54;101471.50;;;15.18
55038;BMP280;40937;53.594;10.034;2023-03-19T11:32:25;101469.22;;;15.27
55038;BMP280;40937;53.594;10.034;2023-03-19T11:34:58;101467.91;;;15.29
55038;BMP280;40937;53.594;10.034;2023-03-19T11:37:32;101470.16;;;15.38
55038;BMP280;40937;53.594;10.034;2023-03-19T11:40:10;101467.25;;;15.39
55038;BMP280;40937;53.594;10.034;2023-03-19T11:42:52;101463.84;;;15.44
55038;BMP280;40937;53.594;10.034;2023-03-19T11:45:27;101467.03;;;15.46
55038;BMP280;40937;53.594;10.034;2023-03-19T11:48:16;101468.97;;;15.50
55038;BMP280;40937;53.594;10.034;2023-03-19T11:50:49;101467.19;;;15.56
55038;BMP280;40937;53.594;10.034;2023-03-19T11:53:23;101464.00;;;15.59
55038;BMP280;40937;53.594;10.034;2023-03-19T11:55:59;101458.44;;;15.61
55038;BMP280;40937;53.594;10.034;2023-03-19T12:01:34;101463.56;;;15.67
55038;BMP280;40937;53.594;10.034;2023-03-19T12:04:31;101464.63;;;15.66
55038;BMP280;40937;53.594;10.034;2023-03-19T12:07:06;101464.41;;;15.68
55038;BMP280;40937;53.594;10.034;2023-03-19T12:09:44;101461.97;;;15.66
55038;BMP280;40937;53.594;10.034;2023-03-19T12:12:18;101458.72;;;15.64
55038;BMP280;40937;53.594;10.034;2023-03-19T12:15:01;101464.06;;;15.64
55038;BMP280;40937;53.594;10.034;2023-03-19T12:17:47;101467.78;;;15.63
55038;BMP280;40937;53.594;10.034;2023-03-19T12:20:36;101462.72;;;15.62
55038;BMP280;40937;53.594;10.034;2023-03-19T12:23:17;101464.56;;;15.61
55038;BMP280;40937;53.594;10.034;2023-03-19T12:26:01;101464.25;;;15.58
55038;BMP280;40937;53.594;10.034;2023-03-19T12:28:38;101472.50;;;15.56
55038;BMP280;40937;53.594;10.034;2023-03-19T12:31:37;101471.94;;;15.54
55038;BMP280;40937;53.594;10.034;2023-03-19T12:34:21;101462.84;;;15.50
55038;BMP280;40937;53.594;10.034;2023-03-19T12:36:59;101464.97;;;15.48
55038;BMP280;40937;53.594;10.034;2023-03-19T12:39:34;101465.75;;;15.48
55038;BMP280;40937;53.594;10.034;2023-03-19T12:42:04;101463.34;;;15.47
55038;BMP280;40937;53.594;10.034;2023-03-19T12:44:37;101459.66;;;15.48
55038;BMP280;40937;53.594;10.034;2023-03-19T12:47:07;101459.66;;;15.48
55038;BMP280;40937;53.594;10.034;2023-03-19T12:49:39;101463.09;;;15.48
55038;BMP280;40937;53.594;10.034;2023-03-19T12:52:16;101463.66;;;15.50
55038;BMP280;40937;53.594;10.034;2023-03-19T12:54:47;101458.06;;;15.52
55038;BMP280;40937;53.594;10.034;2023-03-19T12:57:20;101457.59;;;15.55
55038;BMP280;40937;53.594;10.034;2023-03-19T13:00:15;101462.66;;;15.57
55038;BMP280;40937;53.594;10.034;2023-03-19T13:02:46;101459.72;;;15.58
55038;BMP280;40937;53.594;10.034;2023-03-19T13:05:22;101462.38;;;15.58
55038;BMP280;40937;53.594;10.034;2023-03-19T13:07:57;101456.81;;;15.60
55038;BMP280;40937;53.594;10.034;2023-03-19T13:10:29;101460.31;;;15.60
55038;BMP280;40937;53.594;10.034;2023-03-19T13:12:57;101464.56;;;15.61
55038;BMP280;40937;53.594;10.034;2023-03-19T13:15:29;101459.25;;;15.61
55038;BMP280;40937;53.594;10.034;2023-03-19T13:18:03;101462.97;;;15.60
55038;BMP280;40937;53.594;10.034;2023-03-19T13:20:50;101458.69;;;15.59
55038;BMP280;40937;53.594;10.034;2023-03-19T13:23:23;101458.13;;;15.57
55038;BMP280;40937;53.594;10.034;2023-03-19T13:25:54;101454.91;;;15.55
55038;BMP280;40937;53.594;10.034;2023-03-19T13:28:27;101458.06;;;15.52
55038;BMP280;40937;53.594;10.034;2023-03-19T13:30:59;101457.53;;;15.50
55038;BMP280;40937;53.594;10.034;2023-03-19T13:33:27;101458.81;;;15.47
55038;BMP280;40937;53.594;10.034;2023-03-19T13:35:55;101452.41;;;15.43
55038;BMP280;40937;53.594;10.034;2023-03-19T13:38:26;101454.25;;;15.43
55038;BMP280;40937;53.594;10.034;2023-03-19T13:40:57;101449.16;;;15.41
55038;BMP280;40937;53.594;10.034;2023-03-19T13:43:51;101450.00;;;15.42
55038;BMP280;40937;53.594;10.034;2023-03-19T13:46:34;101440.94;;;15.43
55038;BMP280;40937;53.594;10.034;2023-03-19T13:49:08;101445.72;;;15.41
55038;BMP280;40937;53.594;10.034;2023-03-19T13:51:37;101441.94;;;15.37
55038;BMP280;40937;53.594;10.034;2023-03-19T13:54:14;101444.03;;;15.34
55038;BMP280;40937;53.594;10.034;2023-03-19T13:59:49;101447.69;;;15.28
55038;BMP280;40937;53.594;10.034;2023-03-19T14:05:23;101461.50;;;15.25
55038;BMP280;40937;53.594;10.034;2023-03-19T14:07:53;101465.72;;;15.21
55038;BMP280;40937;53.594;10.034;2023-03-19T14:10:27;101477.16;;;15.22
55038;BMP280;40937;53.594;10.034;2023-03-19T14:13:04;101483.03;;;15.07
55038;BMP280;40937;53.594;10.034;2023-03-19T14:15:33;101471.22;;;14.98
55038;BMP280;40937;53.594;10.034;2023-03-19T14:18:02;101464.81;;;14.93
55038;BMP280;40937;53.594;10.034;2023-03-19T14:20:32;101464.72;;;14.88
55038;BMP280;40937;53.594;10.034;2023-03-19T14:23:19;101460.50;;;14.87
55038;BMP280;40937;53.594;10.034;2023-03-19T14:26:17;101464.66;;;14.83
55038;BMP280;40937;53.594;10.034;2023-03-19T14:28:56;101456.28;;;14.75
55038;BMP280;40937;53.594;10.034;2023-03-19T14:31:29;101461.84;;;14.73